sensor_id;sensor_type;location;lat;lon;timestamp;temperature;humidity
9939;DHT22;5008;50.656;7.188;2022-11-02T00:02:19;13.90;99.90
9939;DHT22;5008;50.656;7.188;2022-11-02T00:04:46;13.90;99.90
9939;DHT22;5008;50.656;7.188;2022-11-02T00:07:14;14.00;99.90
9939;DHT22;5008;50.656;7.188;2022-11-02T00:09:52;13.90;99.90
9939;DHT22;5008;50.656;7.188;2022-11-02T00:12:19;13.90;99.90
9939;DHT22;5008;50.656;7.188;2022-11-02T00:14:46;13.90;99.90
9939;DHT22;5008;50.656;7.188;2022-11-02T00:17:13;13.80;99.90
9939;DHT22;5008;50.656;7.188;2022-11-02T00:19:41;13.90;99.90
9939;DHT22;5008;50.656;7.188;2022-11-02T00:22:08;13.90;99.90
9939;DHT22;5008;50.656;7.188;2022-11-02T00:24:35;13.90;99.90
9939;DHT22;5008;50.656;7.188;2022-11-02T00:27:19;13.90;99.90
9939;DHT22;5008;50.656;7.188;2022-11-02T00:29:45;14.00;99.90
9939;DHT22;5008;50.656;7.188;2022-11-02T00:32:12;14.10;99.90
9939;DHT22;5008;50.656;7.188;2022-11-02T00:34:40;14.20;99.90
9939;DHT22;5008;50.656;7.188;2022-11-02T00:37:07;14.30;99.90
9939;DHT22;5008;50.656;7.188;2022-11-02T00:39:34;14.40;99.90
9939;DHT22;5008;50.656;7.188;2022-11-02T00:42:01;14.30;99.90
9939;DHT22;5008;50.656;7.188;2022-11-02T00:44:28;14.40;99.90
9939;DHT22;5008;50.656;7.188;2022-11-02T00:46:55;14.50;99.90
9939;DHT22;5008;50.656;7.188;2022-11-02T00:49:21;14.50;99.90
9939;DHT22;5008;50.656;7.188;2022-11-02T00:51:50;14.50;99.90
9939;DHT22;5008;50.656;7.188;2022-11-02T00:54:16;14.50;99.90
9939;DHT22;5008;50.656;7.188;2022-11-02T00:56:43;14.40;99.90
9939;DHT22;5008;50.656;7.188;2022-11-02T00:59:10;14.40;99.90
9939;DHT22;5008;50.656;7.188;2022-11-02T01:01:40;14.50;99.90
9939;DHT22;5008;50.656;7.188;2022-11-02T01:04:11;14.50;99.90
9939;DHT22;5008;50.656;7.188;2022-11-02T01:06:38;14.50;99.90
9939;DHT22;5008;50.656;7.188;2022-11-02T01:09:06;14.50;99.90
9939;DHT22;5008;50.656;7.188;2022-11-02T01:11:34;14.60;99.90
9939;DHT22;5008;50.656;7.188;2022-11-02T01:14:01;14.60;99.90
9939;DHT22;5008;50.656;7.188;2022-11-02T01:16:28;14.80;99.90
9939;DHT22;5008;50.656;7.188;2022-11-02T01:18:55;14.70;99.90
9939;DHT22;5008;50.656;7.188;2022-11-02T01:21:23;14.70;99.90
9939;DHT22;5008;50.656;7.188;2022-11-02T01:23:50;14.70;99.90
9939;DHT22;5008;50.656;7.188;2022-11-02T01:26:19;14.70;99.90
9939;DHT22;5008;50.656;7.188;2022-11-02T01:28:46;14.70;99.90
9939;DHT22;5008;50.656;7.188;2022-11-02T01:31:13;14.70;99.90
9939;DHT22;5008;50.656;7.188;2022-11-02T01:33:42;14.70;99.90
9939;DHT22;5008;50.656;7.188;2022-11-02T01:36:10;14.60;99.90
9939;DHT22;5008;50.656;7.188;2022-11-02T01:38:37;14.70;99.90
9939;DHT22;5008;50.656;7.188;2022-11-02T01:41:04;14.70;99.90
9939;DHT22;5008;50.656;7.188;2022-11-02T01:43:34;14.70;99.90
9939;DHT22;5008;50.656;7.188;2022-11-02T01:46:05;14.70;99.90
9939;DHT22;5008;50.656;7.188;2022-11-02T01:48:35;14.70;99.90
9939;DHT22;5008;50.656;7.188;2022-11-02T01:51:08;14.70;99.90
9939;DHT22;5008;50.656;7.188;2022-11-02T01:53:37;14.70;99.90
9939;DHT22;5008;50.656;7.188;2022-11-02T01:56:06;14.60;99.90
9939;DHT22;5008;50.656;7.188;2022-11-02T01:58:34;14.60;99.90
9939;DHT22;5008;50.656;7.188;2022-11-02T02:01:02;14.60;99.90
9939;DHT22;5008;50.656;7.188;2022-11-02T02:03:31;14.40;99.90
9939;DHT22;5008;50.656;7.188;2022-11-02T02:06:04;14.40;99.90
9939;DHT22;5008;50.656;7.188;2022-11-02T02:08:34;14.30;99.90
9939;DHT22;5008;50.656;7.188;2022-11-02T02:11:19;14.40;99.90
9939;DHT22;5008;50.656;7.188;2022-11-02T02:13:51;14.30;99.90
9939;DHT22;5008;50.656;7.188;2022-11-02T02:16:24;14.30;99.90
9939;DHT22;5008;50.656;7.188;2022-11-02T02:25:15;14.40;99.90
9939;DHT22;5008;50.656;7.188;2022-11-02T02:28:12;14.30;99.90
9939;DHT22;5008;50.656;7.188;2022-11-02T02:30:49;14.40;99.90
9939;DHT22;5008;50.656;7.188;2022-11-02T02:33:23;14.40;99.90
9939;DHT22;5008;50.656;7.188;2022-11-02T02:39:04;14.40;99.90
9939;DHT22;5008;50.656;7.188;2022-11-02T02:41:37;14.40;99.90
9939;DHT22;5008;50.656;7.188;2022-11-02T02:44:09;14.20;99.90
9939;DHT22;5008;50.656;7.188;2022-11-02T02:46:39;14.20;99.90
9939;DHT22;5008;50.656;7.188;2022-11-02T02:49:11;14.20;99.90
9939;DHT22;5008;50.656;7.188;2022-11-02T02:51:39;14.30;99.90
9939;DHT22;5008;50.656;7.188;2022-11-02T02:54:11;14.20;99.90
9939;DHT22;5008;50.656;7.188;2022-11-02T02:56:40;14.20;99.90
9939;DHT22;5008;50.656;7.188;2022-11-02T02:59:15;14.20;99.90
9939;DHT22;5008;50.656;7.188;2022-11-02T03:02:05;14.10;99.90
9939;DHT22;5008;50.656;7.188;2022-11-02T03:04:33;14.10;99.90
9939;DHT22;5008;50.656;7.188;2022-11-02T03:07:00;14.00;99.90
9939;DHT22;5008;50.656;7.188;2022-11-02T03:09:31;14.10;99.90
9939;DHT22;5008;50.656;7.188;2022-11-02T03:12:25;14.00;99.90
9939;DHT22;5008;50.656;7.188;2022-11-02T03:15:08;13.90;99.90
9939;DHT22;5008;50.656;7.188;2022-11-02T03:17:44;14.00;99.90
9939;DHT22;5008;50.656;7.188;2022-11-02T03:20:18;14.00;99.90
9939;DHT22;5008;50.656;7.188;2022-11-02T03:22:51;13.90;99.90
9939;DHT22;5008;50.656;7.188;2022-11-02T03:25:26;13.90;99.90
9939;DHT22;5008;50.656;7.188;2022-11-02T03:28:10;13.90;99.90
9939;DHT22;5008;50.656;7.188;2022-11-02T03:30:45;13.90;99.90
9939;DHT22;5008;50.656;7.188;2022-11-02T03:33:18;13.90;99.90
9939;DHT22;5008;50.656;7.188;2022-11-02T03:35:54;13.80;99.90
9939;DHT22;5008;50.656;7.188;2022-11-02T03:38:25;13.90;99.90
9939;DHT22;5008;50.656;7.188;2022-11-02T03:41:00;13.80;99.90
9939;DHT22;5008;50.656;7.188;2022-11-02T03:43:34;13.90;99.90
9939;DHT22;5008;50.656;7.188;2022-11-02T03:46:05;13.90;99.90
9939;DHT22;5008;50.656;7.188;2022-11-02T03:48:37;13.90;99.90
9939;DHT22;5008;50.656;7.188;2022-11-02T03:51:09;13.90;99.90
9939;DHT22;5008;50.656;7.188;2022-11-02T03:53:42;13.80;99.90
9939;DHT22;5008;50.656;7.188;2022-11-02T03:56:15;13.80;99.90
9939;DHT22;5008;50.656;7.188;2022-11-02T03:58:43;13.70;99.90
9939;DHT22;5008;50.656;7.188;2022-11-02T04:01:12;13.80;99.90
9939;DHT22;5008;50.656;7.188;2022-11-02T04:03:46;13.70;99.90
9939;DHT22;5008;50.656;7.188;2022-11-02T04:06:14;13.80;99.90
9939;DHT22;5008;50.656;7.188;2022-11-02T04:08:46;13.70;99.90
9939;DHT22;5008;50.656;7.188;2022-11-02T04:11:31;13.70;99.90
9939;DHT22;5008;50.656;7.188;2022-11-02T04:14:27;13.70;99.90
9939;DHT22;5008;50.656;7.188;2022-11-02T04:17:43;13.70;99.90
9939;DHT22;5008;50.656;7.188;2022-11-02T04:20:28;13.80;99.90
9939;DHT22;5008;50.656;7.188;2022-11-02T04:22:55;13.80;99.90
9939;DHT22;5008;50.656;7.188;2022-11-02T04:25:39;13.70;99.90
9939;DHT22;5008;50.656;7.188;2022-11-02T04:28:08;13.70;99.90
9939;DHT22;5008;50.656;7.188;2022-11-02T04:30:35;13.70;99.90
9939;DHT22;5008;50.656;7.188;2022-11-02T04:33:03;13.70;99.90
9939;DHT22;5008;50.656;7.188;2022-11-02T04:35:48;13.60;99.90
9939;DHT22;5008;50.656;7.188;2022-11-02T04:38:15;13.60;99.90
9939;DHT22;5008;50.656;7.188;2022-11-02T04:41:00;13.50;99.90
9939;DHT22;5008;50.656;7.188;2022-11-02T04:43:41;13.50;99.90
9939;DHT22;5008;50.656;7.188;2022-11-02T04:46:09;13.50;99.90
9939;DHT22;5008;50.656;7.188;2022-11-02T04:48:37;13.30;99.90
9939;DHT22;5008;50.656;7.188;2022-11-02T04:51:04;13.30;99.90
9939;DHT22;5008;50.656;7.188;2022-11-02T04:53:32;13.20;99.90
9939;DHT22;5008;50.656;7.188;2022-11-02T04:56:00;13.10;99.90
9939;DHT22;5008;50.656;7.188;2022-11-02T04:58:27;13.10;99.90
9939;DHT22;5008;50.656;7.188;2022-11-02T05:00:54;13.00;99.90
9939;DHT22;5008;50.656;7.188;2022-11-02T05:03:21;12.90;99.90
9939;DHT22;5008;50.656;7.188;2022-11-02T05:05:54;12.80;99.90
9939;DHT22;5008;50.656;7.188;2022-11-02T05:08:23;12.70;99.90
9939;DHT22;5008;50.656;7.188;2022-11-02T05:10:53;12.60;99.90
9939;DHT22;5008;50.656;7.188;2022-11-02T05:13:20;12.50;99.90
9939;DHT22;5008;50.656;7.188;2022-11-02T05:15:47;12.40;99.90
9939;DHT22;5008;50.656;7.188;2022-11-02T05:18:14;12.30;99.90
9939;DHT22;5008;50.656;7.188;2022-11-02T05:20:41;12.20;99.90
9939;DHT22;5008;50.656;7.188;2022-11-02T05:23:10;12.10;99.90
9939;DHT22;5008;50.656;7.188;2022-11-02T05:25:37;12.10;99.90
9939;DHT22;5008;50.656;7.188;2022-11-02T05:28:04;12.00;99.90
9939;DHT22;5008;50.656;7.188;2022-11-02T05:30:31;11.90;99.90
9939;DHT22;5008;50.656;7.188;2022-11-02T05:32:58;11.80;99.90
9939;DHT22;5008;50.656;7.188;2022-11-02T05:35:27;11.80;99.90
9939;DHT22;5008;50.656;7.188;2022-11-02T05:37:54;11.80;99.90
9939;DHT22;5008;50.656;7.188;2022-11-02T05:40:22;11.80;99.90
9939;DHT22;5008;50.656;7.188;2022-11-02T05:42:49;11.90;99.90
9939;DHT22;5008;50.656;7.188;2022-11-02T05:45:16;11.90;99.90
9939;DHT22;5008;50.656;7.188;2022-11-02T05:47:43;11.80;99.90
9939;DHT22;5008;50.656;7.188;2022-11-02T05:50:10;11.70;99.90
9939;DHT22;5008;50.656;7.188;2022-11-02T05:52:37;11.70;99.90
9939;DHT22;5008;50.656;7.188;2022-11-02T05:55:07;11.70;99.90
9939;DHT22;5008;50.656;7.188;2022-11-02T05:57:37;11.70;99.90
9939;DHT22;5008;50.656;7.188;2022-11-02T06:00:05;11.60;99.90
9939;DHT22;5008;50.656;7.188;2022-11-02T06:02:35;11.50;99.90
9939;DHT22;5008;50.656;7.188;2022-11-02T06:05:07;11.70;99.90
9939;DHT22;5008;50.656;7.188;2022-11-02T06:07:36;11.80;99.90
9939;DHT22;5008;50.656;7.188;2022-11-02T06:10:09;11.70;99.90
9939;DHT22;5008;50.656;7.188;2022-11-02T06:12:38;11.70;99.90
9939;DHT22;5008;50.656;7.188;2022-11-02T06:15:05;11.70;99.90
9939;DHT22;5008;50.656;7.188;2022-11-02T06:20:28;11.40;99.90
9939;DHT22;5008;50.656;7.188;2022-11-02T06:23:02;11.40;99.90
9939;DHT22;5008;50.656;7.188;2022-11-02T06:25:32;11.40;99.90
9939;DHT22;5008;50.656;7.188;2022-11-02T06:28:03;11.40;99.90
9939;DHT22;5008;50.656;7.188;2022-11-02T06:30:33;11.50;99.90
9939;DHT22;5008;50.656;7.188;2022-11-02T06:33:00;11.40;99.90
9939;DHT22;5008;50.656;7.188;2022-11-02T06:35:27;11.30;99.90
9939;DHT22;5008;50.656;7.188;2022-11-02T06:37:55;11.40;99.90
9939;DHT22;5008;50.656;7.188;2022-11-02T06:40:28;11.30;99.90
9939;DHT22;5008;50.656;7.188;2022-11-02T06:43:25;11.30;99.90
9939;DHT22;5008;50.656;7.188;2022-11-02T06:46:51;11.50;99.90
9939;DHT22;5008;50.656;7.188;2022-11-02T06:49:48;11.60;99.90
9939;DHT22;5008;50.656;7.188;2022-11-02T06:55:54;11.70;99.90
9939;DHT22;5008;50.656;7.188;2022-11-02T07:02:28;12.30;99.90
9939;DHT22;5008;50.656;7.188;2022-11-02T07:05:01;12.40;99.90
9939;DHT22;5008;50.656;7.188;2022-11-02T07:07:31;12.50;99.90
9939;DHT22;5008;50.656;7.188;2022-11-02T07:10:23;12.40;99.90
9939;DHT22;5008;50.656;7.188;2022-11-02T07:19:01;12.80;99.90
9939;DHT22;5008;50.656;7.188;2022-11-02T07:21:28;12.70;99.90
9939;DHT22;5008;50.656;7.188;2022-11-02T07:23:55;12.80;99.90
9939;DHT22;5008;50.656;7.188;2022-11-02T07:26:23;12.90;99.90
9939;DHT22;5008;50.656;7.188;2022-11-02T07:28:51;12.90;99.90
9939;DHT22;5008;50.656;7.188;2022-11-02T07:31:19;13.00;99.90
9939;DHT22;5008;50.656;7.188;2022-11-02T07:33:49;12.90;99.90
9939;DHT22;5008;50.656;7.188;2022-11-02T07:36:25;12.70;99.90
9939;DHT22;5008;50.656;7.188;2022-11-02T07:39:05;12.80;99.90
9939;DHT22;5008;50.656;7.188;2022-11-02T07:41:32;12.90;99.90
9939;DHT22;5008;50.656;7.188;2022-11-02T07:44:00;13.00;99.90
9939;DHT22;5008;50.656;7.188;2022-11-02T07:46:27;13.10;99.90
9939;DHT22;5008;50.656;7.188;2022-11-02T07:49:02;13.20;99.90
9939;DHT22;5008;50.656;7.188;2022-11-02T07:54:26;13.40;99.90
9939;DHT22;5008;50.656;7.188;2022-11-02T07:56:53;13.50;99.90
9939;DHT22;5008;50.656;7.188;2022-11-02T07:59:39;13.50;99.90
9939;DHT22;5008;50.656;7.188;2022-11-02T08:02:15;13.60;99.90
9939;DHT22;5008;50.656;7.188;2022-11-02T08:04:42;13.70;99.90
9939;DHT22;5008;50.656;7.188;2022-11-02T08:07:17;13.80;99.90
9939;DHT22;5008;50.656;7.188;2022-11-02T08:09:49;13.80;99.90
9939;DHT22;5008;50.656;7.188;2022-11-02T08:12:16;14.00;99.90
9939;DHT22;5008;50.656;7.188;2022-11-02T08:14:43;14.00;99.90
9939;DHT22;5008;50.656;7.188;2022-11-02T08:17:12;14.00;99.90
9939;DHT22;5008;50.656;7.188;2022-11-02T08:19:42;14.10;99.90
9939;DHT22;5008;50.656;7.188;2022-11-02T08:22:10;14.20;99.90
9939;DHT22;5008;50.656;7.188;2022-11-02T08:24:36;14.40;99.90
9939;DHT22;5008;50.656;7.188;2022-11-02T08:27:05;14.20;99.90
9939;DHT22;5008;50.656;7.188;2022-11-02T08:29:32;14.10;99.90
9939;DHT22;5008;50.656;7.188;2022-11-02T08:31:59;14.20;99.90
9939;DHT22;5008;50.656;7.188;2022-11-02T08:34:26;14.10;99.90
9939;DHT22;5008;50.656;7.188;2022-11-02T08:36:53;14.20;99.90
9939;DHT22;5008;50.656;7.188;2022-11-02T08:39:20;14.40;99.90
9939;DHT22;5008;50.656;7.188;2022-11-02T08:41:47;14.30;99.90
9939;DHT22;5008;50.656;7.188;2022-11-02T08:44:24;14.30;99.90
9939;DHT22;5008;50.656;7.188;2022-11-02T08:46:56;14.20;99.90
9939;DHT22;5008;50.656;7.188;2022-11-02T08:49:24;14.20;99.90
9939;DHT22;5008;50.656;7.188;2022-11-02T08:51:50;14.10;99.90
9939;DHT22;5008;50.656;7.188;2022-11-02T08:54:17;14.20;99.90
9939;DHT22;5008;50.656;7.188;2022-11-02T08:56:44;14.10;99.90
9939;DHT22;5008;50.656;7.188;2022-11-02T08:59:11;14.10;99.90
9939;DHT22;5008;50.656;7.188;2022-11-02T09:01:40;14.20;99.90
9939;DHT22;5008;50.656;7.188;2022-11-02T09:04:06;14.20;99.90
9939;DHT22;5008;50.656;7.188;2022-11-02T09:06:33;14.20;99.90
9939;DHT22;5008;50.656;7.188;2022-11-02T09:09:00;14.30;99.90
9939;DHT22;5008;50.656;7.188;2022-11-02T09:11:27;14.40;99.90
9939;DHT22;5008;50.656;7.188;2022-11-02T09:13:54;14.30;99.90
9939;DHT22;5008;50.656;7.188;2022-11-02T09:16:23;14.30;99.90
9939;DHT22;5008;50.656;7.188;2022-11-02T09:18:52;14.40;99.90
9939;DHT22;5008;50.656;7.188;2022-11-02T09:21:22;14.40;99.90
9939;DHT22;5008;50.656;7.188;2022-11-02T09:23:52;14.40;99.90
9939;DHT22;5008;50.656;7.188;2022-11-02T09:26:21;14.20;99.90
9939;DHT22;5008;50.656;7.188;2022-11-02T09:28:49;14.00;99.90
9939;DHT22;5008;50.656;7.188;2022-11-02T09:31:16;14.10;99.90
9939;DHT22;5008;50.656;7.188;2022-11-02T09:33:43;14.10;99.90
9939;DHT22;5008;50.656;7.188;2022-11-02T09:36:12;14.20;99.90
9939;DHT22;5008;50.656;7.188;2022-11-02T09:38:38;14.40;99.90
9939;DHT22;5008;50.656;7.188;2022-11-02T09:41:13;14.40;99.90
9939;DHT22;5008;50.656;7.188;2022-11-02T09:44:02;14.50;99.90
9939;DHT22;5008;50.656;7.188;2022-11-02T09:46:34;14.50;99.90
9939;DHT22;5008;50.656;7.188;2022-11-02T09:49:04;14.60;99.90
9939;DHT22;5008;50.656;7.188;2022-11-02T09:51:35;14.70;99.90
9939;DHT22;5008;50.656;7.188;2022-11-02T09:54:10;14.60;99.90
9939;DHT22;5008;50.656;7.188;2022-11-02T09:56:40;14.70;99.90
9939;DHT22;5008;50.656;7.188;2022-11-02T09:59:13;14.70;99.90
9939;DHT22;5008;50.656;7.188;2022-11-02T10:01:51;14.90;99.90
9939;DHT22;5008;50.656;7.188;2022-11-02T10:04:41;15.00;99.90
9939;DHT22;5008;50.656;7.188;2022-11-02T10:07:21;14.90;99.90
9939;DHT22;5008;50.656;7.188;2022-11-02T10:09:55;14.90;99.90
9939;DHT22;5008;50.656;7.188;2022-11-02T10:12:36;15.00;99.90
9939;DHT22;5008;50.656;7.188;2022-11-02T10:15:11;15.10;99.90
9939;DHT22;5008;50.656;7.188;2022-11-02T10:17:55;15.10;99.90
9939;DHT22;5008;50.656;7.188;2022-11-02T10:20:28;15.20;99.90
9939;DHT22;5008;50.656;7.188;2022-11-02T10:23:03;15.30;99.90
9939;DHT22;5008;50.656;7.188;2022-11-02T10:25:32;15.50;99.90
9939;DHT22;5008;50.656;7.188;2022-11-02T10:28:12;15.40;99.90
9939;DHT22;5008;50.656;7.188;2022-11-02T10:30:45;15.30;99.90
9939;DHT22;5008;50.656;7.188;2022-11-02T10:33:23;15.30;99.90
9939;DHT22;5008;50.656;7.188;2022-11-02T10:36:08;15.40;99.90
9939;DHT22;5008;50.656;7.188;2022-11-02T10:38:46;15.40;99.90
9939;DHT22;5008;50.656;7.188;2022-11-02T10:41:36;15.40;99.90
9939;DHT22;5008;50.656;7.188;2022-11-02T10:44:23;15.40;99.90
9939;DHT22;5008;50.656;7.188;2022-11-02T10:47:02;15.50;99.90
9939;DHT22;5008;50.656;7.188;2022-11-02T10:52:35;15.70;99.90
9939;DHT22;5008;50.656;7.188;2022-11-02T10:55:14;15.80;99.90
9939;DHT22;5008;50.656;7.188;2022-11-02T10:57:43;15.70;99.90
9939;DHT22;5008;50.656;7.188;2022-11-02T11:00:28;15.70;99.90
9939;DHT22;5008;50.656;7.188;2022-11-02T11:03:05;15.80;99.90
9939;DHT22;5008;50.656;7.188;2022-11-02T11:05:53;15.90;99.90
9939;DHT22;5008;50.656;7.188;2022-11-02T11:08:29;16.00;99.90
9939;DHT22;5008;50.656;7.188;2022-11-02T11:11:12;15.90;99.90
9939;DHT22;5008;50.656;7.188;2022-11-02T11:13:40;15.80;99.90
9939;DHT22;5008;50.656;7.188;2022-11-02T11:16:08;15.80;99.90
9939;DHT22;5008;50.656;7.188;2022-11-02T11:18:36;15.80;99.90
9939;DHT22;5008;50.656;7.188;2022-11-02T11:21:04;16.00;99.90
9939;DHT22;5008;50.656;7.188;2022-11-02T11:23:31;16.20;99.90
9939;DHT22;5008;50.656;7.188;2022-11-02T11:26:01;16.40;99.90
9939;DHT22;5008;50.656;7.188;2022-11-02T11:28:32;16.40;99.90
9939;DHT22;5008;50.656;7.188;2022-11-02T11:31:14;16.40;99.90
9939;DHT22;5008;50.656;7.188;2022-11-02T11:33:50;16.30;99.90
9939;DHT22;5008;50.656;7.188;2022-11-02T11:36:24;16.20;99.90
9939;DHT22;5008;50.656;7.188;2022-11-02T11:38:54;16.30;99.90
9939;DHT22;5008;50.656;7.188;2022-11-02T11:41:22;16.30;99.90
9939;DHT22;5008;50.656;7.188;2022-11-02T11:43:51;16.50;99.90
9939;DHT22;5008;50.656;7.188;2022-11-02T11:46:21;16.70;99.90
9939;DHT22;5008;50.656;7.188;2022-11-02T11:48:54;16.60;99.90
9939;DHT22;5008;50.656;7.188;2022-11-02T11:51:29;16.70;99.90
9939;DHT22;5008;50.656;7.188;2022-11-02T11:54:23;16.60;99.90
9939;DHT22;5008;50.656;7.188;2022-11-02T11:56:53;16.50;99.90
9939;DHT22;5008;50.656;7.188;2022-11-02T11:59:27;16.40;99.90
9939;DHT22;5008;50.656;7.188;2022-11-02T12:01:57;16.50;99.90
9939;DHT22;5008;50.656;7.188;2022-11-02T12:04:32;16.50;99.90
9939;DHT22;5008;50.656;7.188;2022-11-02T12:07:38;16.60;99.90
9939;DHT22;5008;50.656;7.188;2022-11-02T12:10:13;16.80;99.90
9939;DHT22;5008;50.656;7.188;2022-11-02T12:13:00;16.90;99.90
9939;DHT22;5008;50.656;7.188;2022-11-02T12:15:41;17.10;99.90
9939;DHT22;5008;50.656;7.188;2022-11-02T12:18:30;17.40;99.90
9939;DHT22;5008;50.656;7.188;2022-11-02T12:21:07;18.00;99.90
9939;DHT22;5008;50.656;7.188;2022-11-02T12:23:54;18.50;99.90
9939;DHT22;5008;50.656;7.188;2022-11-02T12:26:32;17.90;99.90
9939;DHT22;5008;50.656;7.188;2022-11-02T12:29:10;17.50;99.90
9939;DHT22;5008;50.656;7.188;2022-11-02T12:31:44;17.60;99.90
9939;DHT22;5008;50.656;7.188;2022-11-02T12:34:37;17.30;99.90
9939;DHT22;5008;50.656;7.188;2022-11-02T12:37:12;17.30;99.90
9939;DHT22;5008;50.656;7.188;2022-11-02T12:39:55;17.20;99.90
9939;DHT22;5008;50.656;7.188;2022-11-02T12:42:27;17.40;99.90
9939;DHT22;5008;50.656;7.188;2022-11-02T12:45:04;18.50;99.90
9939;DHT22;5008;50.656;7.188;2022-11-02T12:47:47;20.00;99.90
9939;DHT22;5008;50.656;7.188;2022-11-02T12:50:26;20.20;99.90
9939;DHT22;5008;50.656;7.188;2022-11-02T12:53:03;20.10;99.90
9939;DHT22;5008;50.656;7.188;2022-11-02T12:55:36;20.10;99.60
9939;DHT22;5008;50.656;7.188;2022-11-02T12:58:12;19.60;99.30
9939;DHT22;5008;50.656;7.188;2022-11-02T13:00:42;19.40;99.40
9939;DHT22;5008;50.656;7.188;2022-11-02T13:03:22;19.20;99.40
9939;DHT22;5008;50.656;7.188;2022-11-02T13:05:55;18.90;99.90
9939;DHT22;5008;50.656;7.188;2022-11-02T13:08:33;18.70;99.10
9939;DHT22;5008;50.656;7.188;2022-11-02T13:11:05;18.70;99.60
9939;DHT22;5008;50.656;7.188;2022-11-02T13:13:38;18.70;99.50
9939;DHT22;5008;50.656;7.188;2022-11-02T13:16:07;18.40;99.90
9939;DHT22;5008;50.656;7.188;2022-11-02T13:18:40;18.90;99.70
9939;DHT22;5008;50.656;7.188;2022-11-02T13:21:10;20.10;98.90
9939;DHT22;5008;50.656;7.188;2022-11-02T13:23:42;21.40;98.10
9939;DHT22;5008;50.656;7.188;2022-11-02T13:26:19;21.40;96.80
9939;DHT22;5008;50.656;7.188;2022-11-02T13:28:52;21.10;96.90
9939;DHT22;5008;50.656;7.188;2022-11-02T13:31:33;21.20;98.40
9939;DHT22;5008;50.656;7.188;2022-11-02T13:34:04;21.50;96.30
9939;DHT22;5008;50.656;7.188;2022-11-02T13:36:36;21.10;95.80
9939;DHT22;5008;50.656;7.188;2022-11-02T13:39:07;21.30;95.10
9939;DHT22;5008;50.656;7.188;2022-11-02T13:41:55;22.10;94.60
9939;DHT22;5008;50.656;7.188;2022-11-02T13:47:46;23.70;93.10
9939;DHT22;5008;50.656;7.188;2022-11-02T13:50:20;25.30;91.00
9939;DHT22;5008;50.656;7.188;2022-11-02T13:52:54;25.20;90.90
9939;DHT22;5008;50.656;7.188;2022-11-02T13:55:38;25.40;88.50
9939;DHT22;5008;50.656;7.188;2022-11-02T13:58:06;25.60;85.00
9939;DHT22;5008;50.656;7.188;2022-11-02T14:00:38;24.80;86.40
9939;DHT22;5008;50.656;7.188;2022-11-02T14:03:12;23.30;87.00
9939;DHT22;5008;50.656;7.188;2022-11-02T14:05:47;22.30;90.20
9939;DHT22;5008;50.656;7.188;2022-11-02T14:08:20;21.00;91.20
9939;DHT22;5008;50.656;7.188;2022-11-02T14:11:03;20.20;92.40
9939;DHT22;5008;50.656;7.188;2022-11-02T14:16:42;19.20;94.00
9939;DHT22;5008;50.656;7.188;2022-11-02T14:19:24;19.00;93.70
9939;DHT22;5008;50.656;7.188;2022-11-02T14:22:19;18.70;94.10
9939;DHT22;5008;50.656;7.188;2022-11-02T14:27:53;18.50;94.30
9939;DHT22;5008;50.656;7.188;2022-11-02T14:30:42;18.20;94.50
9939;DHT22;5008;50.656;7.188;2022-11-02T14:36:27;17.80;95.70
9939;DHT22;5008;50.656;7.188;2022-11-02T14:39:08;17.70;95.30
9939;DHT22;5008;50.656;7.188;2022-11-02T14:42:01;17.50;96.00
9939;DHT22;5008;50.656;7.188;2022-11-02T14:44:49;17.40;98.30
9939;DHT22;5008;50.656;7.188;2022-11-02T14:47:26;17.30;97.80
9939;DHT22;5008;50.656;7.188;2022-11-02T14:49:56;17.20;96.60
9939;DHT22;5008;50.656;7.188;2022-11-02T14:52:28;17.10;96.50
9939;DHT22;5008;50.656;7.188;2022-11-02T14:55:01;16.90;96.30
9939;DHT22;5008;50.656;7.188;2022-11-02T14:57:31;16.80;97.00
9939;DHT22;5008;50.656;7.188;2022-11-02T15:00:03;16.70;97.30
9939;DHT22;5008;50.656;7.188;2022-11-02T15:02:32;16.50;96.90
9939;DHT22;5008;50.656;7.188;2022-11-02T15:05:01;16.40;99.90
9939;DHT22;5008;50.656;7.188;2022-11-02T15:07:32;16.40;99.90
9939;DHT22;5008;50.656;7.188;2022-11-02T15:10:05;16.30;99.90
9939;DHT22;5008;50.656;7.188;2022-11-02T15:12:35;16.30;99.90
9939;DHT22;5008;50.656;7.188;2022-11-02T15:15:36;16.40;99.90
9939;DHT22;5008;50.656;7.188;2022-11-02T15:18:30;16.30;99.90
9939;DHT22;5008;50.656;7.188;2022-11-02T15:21:23;16.20;99.90
9939;DHT22;5008;50.656;7.188;2022-11-02T15:24:00;16.20;99.90
9939;DHT22;5008;50.656;7.188;2022-11-02T15:26:35;16.10;99.90
9939;DHT22;5008;50.656;7.188;2022-11-02T15:29:06;16.00;99.90
9939;DHT22;5008;50.656;7.188;2022-11-02T15:31:41;15.90;99.90
9939;DHT22;5008;50.656;7.188;2022-11-02T15:34:13;15.80;99.90
9939;DHT22;5008;50.656;7.188;2022-11-02T15:36:42;15.80;99.90
9939;DHT22;5008;50.656;7.188;2022-11-02T15:39:19;15.80;99.90
9939;DHT22;5008;50.656;7.188;2022-11-02T15:41:52;15.70;99.90
9939;DHT22;5008;50.656;7.188;2022-11-02T15:44:54;15.60;99.90
9939;DHT22;5008;50.656;7.188;2022-11-02T15:47:33;15.50;99.90
9939;DHT22;5008;50.656;7.188;2022-11-02T15:50:28;15.40;99.90
9939;DHT22;5008;50.656;7.188;2022-11-02T15:53:18;15.40;99.90
9939;DHT22;5008;50.656;7.188;2022-11-02T15:55:57;15.40;99.90
9939;DHT22;5008;50.656;7.188;2022-11-02T15:58:37;15.30;99.90
9939;DHT22;5008;50.656;7.188;2022-11-02T16:01:15;15.40;99.90
9939;DHT22;5008;50.656;7.188;2022-11-02T16:03:44;15.40;99.90
9939;DHT22;5008;50.656;7.188;2022-11-02T16:06:12;15.30;99.90
9939;DHT22;5008;50.656;7.188;2022-11-02T16:08:39;15.30;99.90
9939;DHT22;5008;50.656;7.188;2022-11-02T16:11:17;15.30;99.90
9939;DHT22;5008;50.656;7.188;2022-11-02T16:13:46;15.20;99.90
9939;DHT22;5008;50.656;7.188;2022-11-02T16:16:14;15.10;99.90
9939;DHT22;5008;50.656;7.188;2022-11-02T16:18:42;15.10;99.90
9939;DHT22;5008;50.656;7.188;2022-11-02T16:21:12;15.00;99.90
9939;DHT22;5008;50.656;7.188;2022-11-02T16:23:41;14.70;99.90
9939;DHT22;5008;50.656;7.188;2022-11-02T16:26:15;14.30;99.90
9939;DHT22;5008;50.656;7.188;2022-11-02T16:28:49;14.20;99.90
9939;DHT22;5008;50.656;7.188;2022-11-02T16:31:17;14.30;99.90
9939;DHT22;5008;50.656;7.188;2022-11-02T16:33:46;14.30;99.90
9939;DHT22;5008;50.656;7.188;2022-11-02T16:36:16;14.40;99.90
9939;DHT22;5008;50.656;7.188;2022-11-02T16:38:54;14.50;99.90
9939;DHT22;5008;50.656;7.188;2022-11-02T16:41:24;14.70;99.90
9939;DHT22;5008;50.656;7.188;2022-11-02T16:43:53;14.70;99.90
9939;DHT22;5008;50.656;7.188;2022-11-02T16:46:28;14.70;99.90
9939;DHT22;5008;50.656;7.188;2022-11-02T16:49:14;14.60;99.90
9939;DHT22;5008;50.656;7.188;2022-11-02T16:51:48;14.50;99.90
9939;DHT22;5008;50.656;7.188;2022-11-02T16:54:26;14.40;99.90
9939;DHT22;5008;50.656;7.188;2022-11-02T16:56:55;14.10;99.90
9939;DHT22;5008;50.656;7.188;2022-11-02T16:59:25;13.80;99.90
9939;DHT22;5008;50.656;7.188;2022-11-02T17:01:57;13.70;99.90
9939;DHT22;5008;50.656;7.188;2022-11-02T17:04:26;13.50;99.90
9939;DHT22;5008;50.656;7.188;2022-11-02T17:07:09;13.40;99.90
9939;DHT22;5008;50.656;7.188;2022-11-02T17:09:37;13.30;99.90
9939;DHT22;5008;50.656;7.188;2022-11-02T17:12:05;13.20;99.90
9939;DHT22;5008;50.656;7.188;2022-11-02T17:14:34;13.10;99.90
9939;DHT22;5008;50.656;7.188;2022-11-02T17:17:07;13.00;99.90
9939;DHT22;5008;50.656;7.188;2022-11-02T17:19:54;13.00;99.90
9939;DHT22;5008;50.656;7.188;2022-11-02T17:22:25;13.00;99.90
9939;DHT22;5008;50.656;7.188;2022-11-02T17:25:12;13.00;99.90
9939;DHT22;5008;50.656;7.188;2022-11-02T17:27:39;12.90;99.90